Time;durP1;ratioP1;P1;durP2;ratioP2;P2;SDS_P1;SDS_P2;PMS_P1;PMS_P2;Temp;Humidity;BMP_temperature;BMP_pressure;BME280_temperature;BME280_humidity;BME280_pressure;Samples;Min_cycle;Max_cycle;Signal;HPM_P1;HPM_P2
2022/03/20 00:00:44;;;;;;;;;;;3.70;99.90;;;;;;4196226;28;19929;-47
2022/03/20 00:02:46;;;;;;;;;;;3.70;99.90;;;;;;4195801;28;20235;-48
2022/03/20 00:04:48;;;;;;;;;;;3.70;99.90;;;;;;4195784;28;19924;-47
2022/03/20 00:06:50;;;;;;;;;;;3.70;99.90;;;;;;4196191;28;19932;-45
2022/03/20 00:08:54;;;;;;;;;;;3.70;99.90;;;;;;4195746;28;19939;-46
2022/03/20 00:10:59;;;;;;;;;;;3.70;99.90;;;;;;4196030;28;20285;-46
2022/03/20 00:13:05;;;;;;;;;;;3.60;99.90;;;;;;4195888;28;19929;-47
2022/03/20 00:15:07;;;;;;;;;;;3.50;99.90;;;;;;4201740;28;19984;-46
2022/03/20 00:17:09;;;;;;;;;;;3.40;99.90;;;;;;4195129;28;19932;-46
2022/03/20 00:19:11;;;;;;;;;;;3.40;99.90;;;;;;4195366;28;19924;-47
2022/03/20 00:21:13;;;;;;;;;;;3.40;99.90;;;;;;4195515;28;19975;-46
2022/03/20 00:23:16;;;;;;;;;;;3.30;99.90;;;;;;4195200;28;19958;-45
2022/03/20 00:25:18;;;;;;;;;;;3.20;99.90;;;;;;4195535;28;19932;-45
2022/03/20 00:27:20;;;;;;;;;;;3.20;99.90;;;;;;4194031;28;19924;-48
2022/03/20 00:29:22;;;;;;;;;;;3.20;99.90;;;;;;4195592;28;19982;-46
2022/03/20 00:31:25;;;;;;;;;;;3.10;99.90;;;;;;4195367;28;20420;-48
2022/03/20 00:33:27;;;;;;;;;;;3.10;99.90;;;;;;4195708;28;19928;-47
2022/03/20 00:35:30;;;;;;;;;;;2.90;99.90;;;;;;4195584;28;20346;-47
2022/03/20 00:37:36;;;;;;;;;;;2.90;99.90;;;;;;4200781;28;20185;-48
2022/03/20 00:39:38;;;;;;;;;;;3.00;99.90;;;;;;4195883;28;19936;-47
2022/03/20 00:41:40;;;;;;;;;;;3.00;99.90;;;;;;4195228;28;20018;-47
2022/03/20 00:43:42;;;;;;;;;;;2.90;99.90;;;;;;4195434;28;19933;-48
2022/03/20 00:45:44;;;;;;;;;;;2.80;99.90;;;;;;4195779;28;19924;-46
2022/03/20 00:47:46;;;;;;;;;;;2.90;99.90;;;;;;4195014;28;19925;-45
2022/03/20 00:49:49;;;;;;;;;;;2.90;99.90;;;;;;4195180;28;19928;-46
2022/03/20 00:51:50;;;;;;;;;;;3.10;99.90;;;;;;4195239;28;20336;-45
2022/03/20 00:53:53;;;;;;;;;;;3.10;99.90;;;;;;4195640;28;20026;-44
2022/03/20 00:55:54;;;;;;;;;;;3.20;99.90;;;;;;4195250;28;19928;-46
2022/03/20 00:57:57;;;;;;;;;;;3.20;99.90;;;;;;4195138;28;19931;-46
2022/03/20 00:59:58;;;;;;;;;;;3.20;99.90;;;;;;4195379;28;19924;-47
2022/03/20 01:02:01;;;;;;;;;;;3.30;99.90;;;;;;4195216;28;20297;-47
2022/03/20 01:04:03;;;;;;;;;;;3.30;99.90;;;;;;4195362;28;19975;-45
2022/03/20 01:06:06;;;;;;;;;;;3.30;99.90;;;;;;4194786;28;20407;-47
2022/03/20 01:08:09;;;;;;;;;;;3.20;99.90;;;;;;4194926;28;19935;-47
2022/03/20 01:10:11;;;;;;;;;;;3.20;99.90;;;;;;4195128;28;20305;-47
2022/03/20 01:12:14;;;;;;;;;;;3.10;99.90;;;;;;4193803;28;19951;-45
2022/03/20 01:14:16;;;;;;;;;;;3.40;99.90;;;;;;4195029;28;19929;-45
2022/03/20 01:16:18;;;;;;;;;;;3.90;99.90;;;;;;4194987;28;19928;-46
2022/03/20 01:18:20;;;;;;;;;;;3.70;99.90;;;;;;4193904;28;19924;-47
2022/03/20 01:20:22;;;;;;;;;;;3.60;99.90;;;;;;4194837;28;19925;-48
2022/03/20 01:22:24;;;;;;;;;;;3.50;99.90;;;;;;4194839;28;19935;-46
2022/03/20 01:24:28;;;;;;;;;;;3.50;99.90;;;;;;4195087;28;19929;-48
2022/03/20 01:26:30;;;;;;;;;;;3.50;99.90;;;;;;4195343;28;19932;-46
2022/03/20 01:28:32;;;;;;;;;;;3.50;99.90;;;;;;4195008;28;19956;-47
2022/03/20 01:30:34;;;;;;;;;;;3.50;99.90;;;;;;4194067;28;19939;-46
2022/03/20 01:32:36;;;;;;;;;;;3.50;99.90;;;;;;4194902;28;19978;-47
2022/03/20 01:34:38;;;;;;;;;;;3.30;99.90;;;;;;4194644;28;20482;-45
2022/03/20 01:36:42;;;;;;;;;;;3.30;99.90;;;;;;4194987;28;19924;-47
2022/03/20 01:38:43;;;;;;;;;;;3.20;99.90;;;;;;4194893;28;19932;-46
2022/03/20 01:40:46;;;;;;;;;;;3.10;99.90;;;;;;4195010;28;19950;-45
2022/03/20 01:42:48;;;;;;;;;;;3.20;99.90;;;;;;4179901;28;19972;-46
2022/03/20 01:44:50;;;;;;;;;;;3.20;99.90;;;;;;4195035;28;19947;-48
2022/03/20 01:46:52;;;;;;;;;;;3.20;99.90;;;;;;4193486;28;19973;-46
2022/03/20 01:48:54;;;;;;;;;;;3.20;99.90;;;;;;4195223;28;19924;-46
2022/03/20 01:50:56;;;;;;;;;;;3.20;99.90;;;;;;4194497;28;19959;-46
2022/03/20 01:52:58;;;;;;;;;;;3.10;99.90;;;;;;4195030;28;19932;-47
2022/03/20 01:55:01;;;;;;;;;;;3.00;99.90;;;;;;4194397;28;19974;-47
2022/03/20 01:57:03;;;;;;;;;;;2.90;99.90;;;;;;4194861;28;19974;-48
2022/03/20 01:59:05;;;;;;;;;;;2.80;99.90;;;;;;4193805;28;19929;-47
2022/03/20 02:01:06;;;;;;;;;;;2.80;99.90;;;;;;4194521;28;19924;-46
2022/03/20 02:03:08;;;;;;;;;;;2.80;99.90;;;;;;4194011;28;20019;-48
2022/03/20 02:05:11;;;;;;;;;;;2.80;99.90;;;;;;4194206;28;19929;-48
2022/03/20 02:07:13;;;;;;;;;;;2.70;99.90;;;;;;4194759;28;20380;-46
2022/03/20 02:09:16;;;;;;;;;;;2.60;99.90;;;;;;4194646;28;19924;-47
2022/03/20 02:11:19;;;;;;;;;;;2.60;99.90;;;;;;4194620;28;20019;-47
2022/03/20 02:13:22;;;;;;;;;;;2.50;99.90;;;;;;4194716;28;19978;-47
2022/03/20 02:15:24;;;;;;;;;;;2.50;99.90;;;;;;4194365;28;19931;-46
2022/03/20 02:17:29;;;;;;;;;;;2.50;99.90;;;;;;4194035;28;19935;-49
2022/03/20 02:19:34;;;;;;;;;;;2.40;99.90;;;;;;4194849;28;19924;-49
2022/03/20 02:21:36;;;;;;;;;;;2.30;99.90;;;;;;4193405;28;20313;-49
2022/03/20 02:23:38;;;;;;;;;;;2.30;99.90;;;;;;4194733;28;19931;-50
2022/03/20 02:25:50;;;;;;;;;;;2.30;99.90;;;;;;4194161;28;20000;-49
2022/03/20 02:27:53;;;;;;;;;;;2.20;99.90;;;;;;4194428;28;19925;-48
2022/03/20 02:29:59;;;;;;;;;;;2.10;99.90;;;;;;4194311;28;19933;-48
2022/03/20 02:32:02;;;;;;;;;;;2.10;99.90;;;;;;4194314;28;20296;-45
2022/03/20 02:34:04;;;;;;;;;;;2.20;99.90;;;;;;4193356;28;19924;-46
2022/03/20 02:36:06;;;;;;;;;;;2.20;99.90;;;;;;4194563;28;19932;-46
2022/03/20 02:38:10;;;;;;;;;;;2.10;99.90;;;;;;4194736;28;19978;-50
2022/03/20 02:40:12;;;;;;;;;;;2.10;99.90;;;;;;4195922;28;19930;-48
2022/03/20 02:42:16;;;;;;;;;;;2.10;99.90;;;;;;4197327;28;19974;-47
2022/03/20 02:44:18;;;;;;;;;;;2.10;99.90;;;;;;4197246;28;19925;-50
2022/03/20 02:46:23;;;;;;;;;;;2.00;99.90;;;;;;4197205;28;20453;-46
2022/03/20 02:48:26;;;;;;;;;;;2.00;99.90;;;;;;4197175;28;19932;-47
2022/03/20 02:50:30;;;;;;;;;;;1.90;99.90;;;;;;4197204;28;19931;-47
2022/03/20 02:52:52;;;;;;;;;;;1.90;99.90;;;;;;4196065;28;19928;-46
2022/03/20 02:54:54;;;;;;;;;;;1.80;99.90;;;;;;4197284;28;19924;-47
2022/03/20 02:56:56;;;;;;;;;;;1.80;99.90;;;;;;4196959;28;20019;-48
2022/03/20 02:58:58;;;;;;;;;;;1.80;99.90;;;;;;4197355;28;19970;-48
2022/03/20 03:01:00;;;;;;;;;;;1.90;99.90;;;;;;4197088;28;19928;-48
2022/03/20 03:03:04;;;;;;;;;;;2.00;99.90;;;;;;4197416;28;19955;-46
2022/03/20 03:05:06;;;;;;;;;;;2.00;99.90;;;;;;4196950;28;19933;-49
2022/03/20 03:07:08;;;;;;;;;;;2.00;99.90;;;;;;4197103;28;19924;-49
2022/03/20 03:11:31;;;;;;;;;;;1.90;99.90;;;;;;4196784;28;19924;-49
2022/03/20 03:13:34;;;;;;;;;;;1.90;99.90;;;;;;4196994;28;19959;-49
2022/03/20 03:15:36;;;;;;;;;;;1.90;99.90;;;;;;4196971;28;19928;-49
2022/03/20 03:17:38;;;;;;;;;;;2.10;99.90;;;;;;4196577;28;20026;-49
2022/03/20 03:19:40;;;;;;;;;;;2.20;99.90;;;;;;4196970;28;19970;-48
2022/03/20 03:21:42;;;;;;;;;;;2.40;99.90;;;;;;4196654;28;20409;-50
2022/03/20 03:23:44;;;;;;;;;;;2.50;99.90;;;;;;4197131;28;19935;-50
2022/03/20 03:25:47;;;;;;;;;;;2.50;99.90;;;;;;4196686;28;20408;-48
2022/03/20 03:27:48;;;;;;;;;;;2.40;99.90;;;;;;4196643;28;19951;-45
2022/03/20 03:29:51;;;;;;;;;;;2.30;99.90;;;;;;4196784;28;20347;-46
2022/03/20 03:31:53;;;;;;;;;;;2.20;99.90;;;;;;4196546;28;19924;-46
2022/03/20 03:36:15;;;;;;;;;;;2.10;99.90;;;;;;4196415;28;19924;-45
2022/03/20 03:38:18;;;;;;;;;;;2.00;99.90;;;;;;4197022;28;20442;-46
2022/03/20 03:40:20;;;;;;;;;;;1.90;99.90;;;;;;4197882;28;19978;-47
2022/03/20 03:42:21;;;;;;;;;;;1.90;99.90;;;;;;4196217;28;19963;-46
2022/03/20 03:44:23;;;;;;;;;;;1.80;99.90;;;;;;4196620;28;20396;-46
2022/03/20 03:46:25;;;;;;;;;;;1.80;99.90;;;;;;4194919;28;19956;-47
2022/03/20 03:48:27;;;;;;;;;;;1.80;99.90;;;;;;4195968;28;19964;-46
2022/03/20 03:50:30;;;;;;;;;;;1.70;99.90;;;;;;4196338;28;19936;-47
2022/03/20 03:52:31;;;;;;;;;;;1.70;99.90;;;;;;4195419;28;19974;-46
2022/03/20 03:54:33;;;;;;;;;;;1.80;99.90;;;;;;4195602;28;20006;-47
2022/03/20 03:56:37;;;;;;;;;;;2.00;99.90;;;;;;4196188;28;19929;-49
2022/03/20 03:58:40;;;;;;;;;;;2.00;99.90;;;;;;4196015;28;19931;-49
2022/03/20 04:00:43;;;;;;;;;;;1.90;99.90;;;;;;4196375;28;19928;-47
2022/03/20 04:02:46;;;;;;;;;;;1.90;99.90;;;;;;4196175;28;20615;-47
2022/03/20 04:04:48;;;;;;;;;;;1.90;99.90;;;;;;4196367;28;19929;-46
2022/03/20 04:06:50;;;;;;;;;;;1.80;99.90;;;;;;4195916;28;20331;-46
2022/03/20 04:08:53;;;;;;;;;;;1.70;99.90;;;;;;4196192;28;19928;-46
2022/03/20 04:10:55;;;;;;;;;;;1.80;99.90;;;;;;4196103;28;19929;-50
2022/03/20 04:12:57;;;;;;;;;;;1.90;99.90;;;;;;4195786;28;19932;-47
2022/03/20 04:15:02;;;;;;;;;;;2.00;99.90;;;;;;4196224;28;19924;-48
2022/03/20 04:17:05;;;;;;;;;;;2.00;99.90;;;;;;4195899;28;19931;-49
2022/03/20 04:19:07;;;;;;;;;;;1.90;99.90;;;;;;4196753;28;19928;-50
2022/03/20 04:21:10;;;;;;;;;;;1.70;99.90;;;;;;4195814;28;20035;-46
2022/03/20 04:25:33;;;;;;;;;;;1.50;99.90;;;;;;4194767;28;19970;-47
2022/03/20 04:27:35;;;;;;;;;;;1.40;99.90;;;;;;4195720;28;19998;-48
2022/03/20 04:29:36;;;;;;;;;;;1.40;99.90;;;;;;4195959;28;19925;-50
2022/03/20 04:31:40;;;;;;;;;;;1.40;99.90;;;;;;4195630;28;19924;-46
2022/03/20 04:33:49;;;;;;;;;;;1.30;99.90;;;;;;4195713;28;19932;-46
2022/03/20 04:35:51;;;;;;;;;;;1.20;99.90;;;;;;4195595;28;19929;-46
2022/03/20 04:37:54;;;;;;;;;;;1.20;99.90;;;;;;4195552;28;19956;-49
2022/03/20 04:39:56;;;;;;;;;;;1.10;99.90;;;;;;4194110;28;19928;-46
2022/03/20 04:41:58;;;;;;;;;;;1.20;99.90;;;;;;4195920;28;20005;-45
2022/03/20 04:44:00;;;;;;;;;;;1.10;99.90;;;;;;4195647;28;20040;-46
2022/03/20 04:46:02;;;;;;;;;;;1.20;99.90;;;;;;4195431;28;19925;-49
2022/03/20 04:59:46;;;;;;;;;;;0.90;99.90;;;;;;4195535;28;19959;-47
2022/03/20 05:01:48;;;;;;;;;;;0.90;99.90;;;;;;4194827;28;20396;-49
2022/03/20 05:03:50;;;;;;;;;;;0.80;99.90;;;;;;4195190;28;19924;-50
2022/03/20 05:05:52;;;;;;;;;;;0.80;99.90;;;;;;4195046;28;19925;-50
2022/03/20 05:07:54;;;;;;;;;;;0.80;99.90;;;;;;4195090;28;19935;-46
2022/03/20 05:14:42;;;;;;;;;;;0.80;99.90;;;;;;4194208;28;19928;-46
2022/03/20 05:16:44;;;;;;;;;;;0.80;99.90;;;;;;4194893;28;19928;-49
2022/03/20 05:18:46;;;;;;;;;;;0.80;99.90;;;;;;4194360;28;20331;-49
2022/03/20 05:20:49;;;;;;;;;;;0.80;99.90;;;;;;4195275;28;20419;-45
2022/03/20 05:22:51;;;;;;;;;;;0.80;99.90;;;;;;4192133;28;19924;-48
2022/03/20 05:24:53;;;;;;;;;;;0.80;99.90;;;;;;4195220;28;20269;-48
2022/03/20 05:26:55;;;;;;;;;;;0.70;99.90;;;;;;4195045;28;19924;-47
2022/03/20 05:28:56;;;;;;;;;;;0.80;99.90;;;;;;4194600;28;20002;-46
2022/03/20 05:30:58;;;;;;;;;;;0.80;99.90;;;;;;4195030;28;19929;-49
2022/03/20 05:33:00;;;;;;;;;;;0.80;99.90;;;;;;4194633;28;20452;-48
2022/03/20 05:35:07;;;;;;;;;;;0.70;99.90;;;;;;4195128;28;19947;-49
2022/03/20 05:37:09;;;;;;;;;;;0.80;99.90;;;;;;4194762;28;19928;-47
2022/03/20 05:39:11;;;;;;;;;;;1.30;99.90;;;;;;4194894;28;19935;-45
2022/03/20 05:43:33;;;;;;;;;;;1.20;99.90;;;;;;4194823;28;19929;-47
2022/03/20 05:45:37;;;;;;;;;;;1.00;99.90;;;;;;4194972;28;20404;-50
2022/03/20 05:47:40;;;;;;;;;;;0.80;99.90;;;;;;4194624;28;19955;-47
2022/03/20 05:49:42;;;;;;;;;;;0.80;99.90;;;;;;4194527;28;19925;-49
2022/03/20 05:51:45;;;;;;;;;;;0.70;99.90;;;;;;4195087;28;19971;-46
2022/03/20 05:53:46;;;;;;;;;;;0.70;99.90;;;;;;4194542;28;19924;-48
2022/03/20 05:58:13;;;;;;;;;;;0.70;99.90;;;;;;4180825;28;20356;-49
2022/03/20 06:00:18;;;;;;;;;;;0.60;99.90;;;;;;4194856;28;19925;-49
2022/03/20 06:02:20;;;;;;;;;;;0.60;99.90;;;;;;4178615;28;19936;-47
2022/03/20 06:04:22;;;;;;;;;;;0.60;99.90;;;;;;4194824;28;19924;-48
2022/03/20 06:06:24;;;;;;;;;;;0.70;99.90;;;;;;4194915;28;19925;-49
2022/03/20 06:08:26;;;;;;;;;;;0.70;99.90;;;;;;4194434;28;20308;-46
2022/03/20 06:10:28;;;;;;;;;;;0.80;99.90;;;;;;4194651;28;19929;-46
2022/03/20 06:12:30;;;;;;;;;;;0.80;99.90;;;;;;4195852;28;19974;-46
2022/03/20 06:14:35;;;;;;;;;;;0.80;99.90;;;;;;4195348;28;20404;-47
2022/03/20 06:16:38;;;;;;;;;;;0.80;99.90;;;;;;4197848;28;20035;-46
2022/03/20 06:18:42;;;;;;;;;;;0.90;99.90;;;;;;4197161;28;19924;-46
2022/03/20 06:20:45;;;;;;;;;;;0.90;99.90;;;;;;4181737;28;19986;-48
2022/03/20 06:22:49;;;;;;;;;;;0.90;99.90;;;;;;4197643;28;19973;-50
2022/03/20 06:24:51;;;;;;;;;;;1.00;99.90;;;;;;4197418;28;19963;-50
2022/03/20 06:26:53;;;;;;;;;;;1.10;99.90;;;;;;4197737;28;19935;-50
2022/03/20 06:28:55;;;;;;;;;;;1.10;99.90;;;;;;4197266;28;19928;-49
2022/03/20 06:30:57;;;;;;;;;;;1.10;99.90;;;;;;4197663;28;20019;-49
2022/03/20 06:32:59;;;;;;;;;;;1.20;99.90;;;;;;4197206;28;20367;-49
2022/03/20 06:35:01;;;;;;;;;;;1.30;99.90;;;;;;4197453;28;19925;-49
2022/03/20 06:37:03;;;;;;;;;;;1.30;99.90;;;;;;4197810;28;20035;-48
2022/03/20 06:39:05;;;;;;;;;;;1.40;99.90;;;;;;4197507;28;19950;-45
2022/03/20 06:41:08;;;;;;;;;;;1.40;99.90;;;;;;4197412;28;19931;-47
2022/03/20 06:43:09;;;;;;;;;;;1.40;99.90;;;;;;4197204;28;19970;-47
2022/03/20 06:45:12;;;;;;;;;;;1.50;99.90;;;;;;4197475;28;19959;-48
2022/03/20 06:47:15;;;;;;;;;;;1.60;99.90;;;;;;4197178;28;19982;-48
2022/03/20 06:49:17;;;;;;;;;;;1.60;99.90;;;;;;4197090;28;19929;-49
2022/03/20 06:51:19;;;;;;;;;;;1.70;99.90;;;;;;4196848;28;19932;-49
2022/03/20 06:53:21;;;;;;;;;;;1.80;99.90;;;;;;4183235;28;20296;-46
2022/03/20 06:55:23;;;;;;;;;;;1.90;99.90;;;;;;4197343;28;19932;-48
2022/03/20 06:57:26;;;;;;;;;;;1.80;99.90;;;;;;4197403;28;19928;-49
2022/03/20 06:59:28;;;;;;;;;;;1.90;99.90;;;;;;4197014;28;20288;-47
2022/03/20 07:01:30;;;;;;;;;;;2.10;99.90;;;;;;4197197;28;19932;-49
2022/03/20 07:03:32;;;;;;;;;;;2.20;99.90;;;;;;4197431;28;19974;-47
2022/03/20 07:05:35;;;;;;;;;;;2.20;99.90;;;;;;4197483;28;19978;-48
2022/03/20 07:07:37;;;;;;;;;;;2.20;99.90;;;;;;4196564;28;19993;-49
2022/03/20 07:09:38;;;;;;;;;;;2.20;99.90;;;;;;4196525;28;19928;-49
2022/03/20 07:11:40;;;;;;;;;;;2.20;99.90;;;;;;4197067;28;19925;-49
2022/03/20 07:13:48;;;;;;;;;;;2.30;99.90;;;;;;4194958;28;19928;-48
2022/03/20 07:15:52;;;;;;;;;;;2.50;99.90;;;;;;4197034;28;20427;-47
2022/03/20 07:17:54;;;;;;;;;;;2.70;99.90;;;;;;4195862;28;20011;-49
2022/03/20 07:19:58;;;;;;;;;;;2.90;99.90;;;;;;4196315;28;20458;-49
2022/03/20 07:22:00;;;;;;;;;;;2.90;99.90;;;;;;4196878;28;19931;-47
2022/03/20 07:24:02;;;;;;;;;;;3.00;99.90;;;;;;4196731;28;19928;-46
2022/03/20 07:30:45;;;;;;;;;;;3.20;99.90;;;;;;4186569;28;19974;-47
2022/03/20 07:32:47;;;;;;;;;;;3.50;99.90;;;;;;4197086;28;19936;-49
2022/03/20 07:34:49;;;;;;;;;;;3.60;99.90;;;;;;4196341;28;20391;-49
2022/03/20 07:36:51;;;;;;;;;;;3.70;99.90;;;;;;4196861;28;19924;-50
2022/03/20 07:38:53;;;;;;;;;;;4.00;99.90;;;;;;4196438;28;19928;-51
2022/03/20 07:40:55;;;;;;;;;;;4.10;99.90;;;;;;4196395;28;20273;-48
2022/03/20 07:42:57;;;;;;;;;;;4.30;99.90;;;;;;4196615;28;19924;-49
2022/03/20 07:45:03;;;;;;;;;;;4.40;99.90;;;;;;4196273;28;19929;-50
2022/03/20 07:47:08;;;;;;;;;;;4.60;99.90;;;;;;4196395;28;19931;-46
2022/03/20 07:49:10;;;;;;;;;;;4.60;99.90;;;;;;4196142;28;20036;-45
2022/03/20 07:51:16;;;;;;;;;;;4.90;99.90;;;;;;4196027;28;19925;-50
2022/03/20 07:53:19;;;;;;;;;;;5.20;99.90;;;;;;4196642;28;19947;-47
2022/03/20 07:55:21;;;;;;;;;;;5.40;99.90;;;;;;4195679;28;20355;-45
2022/03/20 07:57:23;;;;;;;;;;;5.60;99.90;;;;;;4196277;28;19925;-49
2022/03/20 07:59:25;;;;;;;;;;;5.70;99.90;;;;;;4196052;28;19928;-49
2022/03/20 08:01:28;;;;;;;;;;;5.80;99.90;;;;;;4194749;28;19943;-50
2022/03/20 08:03:30;;;;;;;;;;;6.10;99.90;;;;;;4196064;28;19931;-49
2022/03/20 08:05:32;;;;;;;;;;;6.30;99.90;;;;;;4192762;28;19978;-49
2022/03/20 08:07:35;;;;;;;;;;;6.40;99.90;;;;;;4196014;28;19974;-48
2022/03/20 08:09:36;;;;;;;;;;;6.50;99.90;;;;;;4195737;28;19982;-49
2022/03/20 08:11:38;;;;;;;;;;;6.90;99.90;;;;;;4195916;28;20394;-47
2022/03/20 08:13:43;;;;;;;;;;;7.30;99.90;;;;;;4184401;28;19978;-49
2022/03/20 08:15:45;;;;;;;;;;;7.70;99.90;;;;;;4195847;28;19928;-46
2022/03/20 08:17:50;;;;;;;;;;;7.90;99.90;;;;;;4195699;28;19935;-49
2022/03/20 08:19:51;;;;;;;;;;;7.90;99.90;;;;;;4195470;28;19925;-49
2022/03/20 08:21:55;;;;;;;;;;;7.90;99.90;;;;;;4195473;28;20027;-48
2022/03/20 08:23:57;;;;;;;;;;;8.00;99.90;;;;;;4194030;28;20466;-50
2022/03/20 08:25:59;;;;;;;;;;;8.10;99.90;;;;;;4195371;28;19928;-48
2022/03/20 08:28:02;;;;;;;;;;;8.10;99.90;;;;;;4195810;28;20474;-49
2022/03/20 08:30:05;;;;;;;;;;;8.30;99.90;;;;;;4195313;28;19928;-47
2022/03/20 08:32:07;;;;;;;;;;;8.50;99.90;;;;;;4196097;28;19924;-50
2022/03/20 08:34:09;;;;;;;;;;;8.50;99.90;;;;;;4194311;28;20009;-48
2022/03/20 08:36:12;;;;;;;;;;;8.40;99.90;;;;;;4195505;28;20011;-49
2022/03/20 08:38:14;;;;;;;;;;;8.70;99.90;;;;;;4195201;28;20285;-50
2022/03/20 08:40:17;;;;;;;;;;;8.90;99.90;;;;;;4195174;28;19971;-49
2022/03/20 08:42:19;;;;;;;;;;;9.20;99.90;;;;;;4195670;28;19955;-46
2022/03/20 08:44:25;;;;;;;;;;;9.40;99.90;;;;;;4191340;28;19932;-49
2022/03/20 08:46:27;;;;;;;;;;;9.50;99.90;;;;;;4191138;28;19931;-49
2022/03/20 08:48:29;;;;;;;;;;;9.40;99.90;;;;;;4193998;28;19928;-48
2022/03/20 08:50:31;;;;;;;;;;;9.60;99.90;;;;;;4195369;28;19928;-47
2022/03/20 08:52:33;;;;;;;;;;;9.80;99.90;;;;;;4195476;28;20357;-47
2022/03/20 08:54:35;;;;;;;;;;;9.90;99.90;;;;;;4194066;28;19956;-48
2022/03/20 08:56:37;;;;;;;;;;;10.10;99.70;;;;;;4195417;28;19928;-48
2022/03/20 08:58:39;;;;;;;;;;;10.10;99.00;;;;;;4195327;28;20305;-50
2022/03/20 09:00:41;;;;;;;;;;;10.30;99.30;;;;;;4194860;28;19924;-47
2022/03/20 09:02:44;;;;;;;;;;;10.20;98.60;;;;;;4195217;28;19924;-50
2022/03/20 09:04:46;;;;;;;;;;;10.10;98.30;;;;;;4194993;28;19946;-49
2022/03/20 09:06:49;;;;;;;;;;;10.20;99.60;;;;;;4195559;28;19924;-51
2022/03/20 09:08:53;;;;;;;;;;;10.40;98.50;;;;;;4192613;28;19924;-46
2022/03/20 09:10:55;;;;;;;;;;;10.50;98.00;;;;;;4193508;28;19974;-51
2022/03/20 09:13:00;;;;;;;;;;;10.60;97.10;;;;;;4195452;28;19924;-50
2022/03/20 09:15:02;;;;;;;;;;;10.90;97.90;;;;;;4194871;28;19931;-48
2022/03/20 09:19:26;;;;;;;;;;;11.30;97.80;;;;;;4188629;28;19932;-48
2022/03/20 09:21:29;;;;;;;;;;;11.10;96.30;;;;;;4194736;28;20011;-49
2022/03/20 09:23:31;;;;;;;;;;;11.30;98.20;;;;;;4195269;28;20426;-49
2022/03/20 09:25:33;;;;;;;;;;;11.60;96.80;;;;;;4194862;28;19967;-51
2022/03/20 09:27:36;;;;;;;;;;;11.80;96.80;;;;;;4194944;28;20407;-50
2022/03/20 09:29:38;;;;;;;;;;;12.00;96.50;;;;;;4195150;28;19928;-50
2022/03/20 09:31:39;;;;;;;;;;;11.70;94.10;;;;;;4194370;28;20028;-50
2022/03/20 09:33:43;;;;;;;;;;;11.90;96.60;;;;;;4194901;28;19924;-50
2022/03/20 09:35:45;;;;;;;;;;;11.80;94.50;;;;;;4194849;28;19928;-49
2022/03/20 09:37:47;;;;;;;;;;;11.70;93.20;;;;;;4194903;28;19928;-50
2022/03/20 09:39:49;;;;;;;;;;;11.40;93.00;;;;;;4194730;28;19968;-49
2022/03/20 09:41:51;;;;;;;;;;;11.60;93.30;;;;;;4194819;28;19998;-48
2022/03/20 09:43:53;;;;;;;;;;;11.90;93.30;;;;;;4194826;28;19968;-48
2022/03/20 09:45:55;;;;;;;;;;;12.10;92.80;;;;;;4194554;28;19932;-50
2022/03/20 09:47:57;;;;;;;;;;;12.10;92.40;;;;;;4194667;28;20384;-48
2022/03/20 09:49:59;;;;;;;;;;;11.80;93.60;;;;;;4197396;28;19975;-47
2022/03/20 09:52:03;;;;;;;;;;;11.90;92.50;;;;;;4194715;28;20292;-48
2022/03/20 09:54:06;;;;;;;;;;;12.30;93.40;;;;;;4196075;28;19924;-47
2022/03/20 09:56:11;;;;;;;;;;;12.40;92.70;;;;;;4194029;28;20062;-48
2022/03/20 09:58:13;;;;;;;;;;;12.80;92.50;;;;;;4198204;28;19924;-50
2022/03/20 10:00:16;;;;;;;;;;;12.50;91.20;;;;;;4195918;28;19924;-47
2022/03/20 10:02:18;;;;;;;;;;;12.60;90.90;;;;;;4191090;28;19924;-47
2022/03/20 10:04:20;;;;;;;;;;;12.30;91.00;;;;;;4193907;28;19928;-49
2022/03/20 10:06:23;;;;;;;;;;;11.90;90.00;;;;;;4183797;28;20343;-50
2022/03/20 10:08:25;;;;;;;;;;;12.10;91.10;;;;;;4192824;28;19994;-50
2022/03/20 10:10:28;;;;;;;;;;;12.60;89.50;;;;;;4188013;28;19936;-50
2022/03/20 10:12:31;;;;;;;;;;;12.40;86.70;;;;;;4197254;28;19926;-50
2022/03/20 10:14:33;;;;;;;;;;;12.00;84.00;;;;;;4197841;28;19929;-47
2022/03/20 10:17:16;;;;;;;;;;;12.20;84.90;;;;;;4196929;28;19947;-50
2022/03/20 10:19:25;;;;;;;;;;;12.60;88.90;;;;;;4193664;28;19974;-48
2022/03/20 10:21:45;;;;;;;;;;;12.60;88.30;;;;;;4195473;28;19960;-51
2022/03/20 10:23:47;;;;;;;;;;;12.70;81.40;;;;;;4194481;28;21160;-49
2022/03/20 10:25:50;;;;;;;;;;;12.40;83.30;;;;;;4189436;28;20451;-49
2022/03/20 10:27:57;;;;;;;;;;;12.80;85.00;;;;;;4196423;28;20332;-51
2022/03/20 10:30:00;;;;;;;;;;;13.20;82.90;;;;;;4192814;28;20396;-48
2022/03/20 10:32:05;;;;;;;;;;;13.50;83.50;;;;;;4196503;28;19930;-50
2022/03/20 10:34:07;;;;;;;;;;;13.10;80.70;;;;;;4190651;28;20507;-51
2022/03/20 10:36:11;;;;;;;;;;;13.30;83.40;;;;;;4195410;28;19928;-49
2022/03/20 10:38:14;;;;;;;;;;;13.20;82.50;;;;;;4195041;28;19924;-50
2022/03/20 10:40:18;;;;;;;;;;;12.80;82.80;;;;;;4194280;28;19928;-50
2022/03/20 10:42:20;;;;;;;;;;;12.70;82.00;;;;;;4183834;28;20387;-47
2022/03/20 10:44:26;;;;;;;;;;;12.60;82.80;;;;;;4191355;28;19939;-51
2022/03/20 10:46:31;;;;;;;;;;;12.80;83.60;;;;;;4186259;28;19932;-48
2022/03/20 10:48:34;;;;;;;;;;;13.20;85.20;;;;;;4194759;28;20420;-51
2022/03/20 10:50:45;;;;;;;;;;;13.10;83.60;;;;;;4194353;28;19928;-52
2022/03/20 10:53:04;;;;;;;;;;;13.30;85.40;;;;;;4198213;28;20336;-50
2022/03/20 10:55:08;;;;;;;;;;;13.00;80.30;;;;;;4194323;28;19967;-52
2022/03/20 10:57:11;;;;;;;;;;;12.70;83.40;;;;;;4193738;28;20243;-47
2022/03/20 10:59:14;;;;;;;;;;;12.20;81.60;;;;;;4192466;28;20399;-50
2022/03/20 11:01:17;;;;;;;;;;;11.90;81.90;;;;;;4191359;28;19960;-47
2022/03/20 11:03:22;;;;;;;;;;;11.80;84.80;;;;;;4200611;28;19970;-51
2022/03/20 11:05:24;;;;;;;;;;;11.90;87.80;;;;;;4193816;28;19928;-47
2022/03/20 11:07:26;;;;;;;;;;;12.10;88.10;;;;;;4188005;28;19924;-50
2022/03/20 11:09:28;;;;;;;;;;;12.60;88.90;;;;;;4196031;28;20444;-50
2022/03/20 11:11:34;;;;;;;;;;;12.70;85.10;;;;;;4195523;28;19940;-49
2022/03/20 11:13:37;;;;;;;;;;;13.10;84.80;;;;;;4194167;28;19990;-52
2022/03/20 11:15:39;;;;;;;;;;;12.90;85.00;;;;;;4192132;28;19931;-49
2022/03/20 11:17:43;;;;;;;;;;;13.10;85.40;;;;;;4193624;28;20355;-50
2022/03/20 11:19:49;;;;;;;;;;;13.10;82.30;;;;;;4191442;28;19997;-48
2022/03/20 11:21:53;;;;;;;;;;;13.30;85.30;;;;;;4190632;28;20395;-49
2022/03/20 11:23:55;;;;;;;;;;;13.50;79.20;;;;;;4185486;28;19924;-49
2022/03/20 11:25:58;;;;;;;;;;;13.40;79.40;;;;;;4190991;28;19928;-51
2022/03/20 11:28:03;;;;;;;;;;;13.40;83.70;;;;;;4189298;28;20377;-51
2022/03/20 11:30:07;;;;;;;;;;;13.90;82.90;;;;;;4193094;28;19925;-49
2022/03/20 11:32:09;;;;;;;;;;;14.50;81.70;;;;;;4183464;28;19924;-49
2022/03/20 11:34:12;;;;;;;;;;;14.00;79.70;;;;;;4191190;28;19933;-49
2022/03/20 11:36:14;;;;;;;;;;;14.20;81.50;;;;;;4190859;28;19983;-49
2022/03/20 11:38:20;;;;;;;;;;;14.30;79.90;;;;;;4193618;28;20515;-50
2022/03/20 11:40:24;;;;;;;;;;;14.10;80.10;;;;;;4193164;28;20413;-48
2022/03/20 11:42:27;;;;;;;;;;;14.40;78.10;;;;;;4194830;28;20349;-49
2022/03/20 11:44:28;;;;;;;;;;;14.20;78.20;;;;;;4196631;28;19935;-50
2022/03/20 11:46:33;;;;;;;;;;;13.50;78.60;;;;;;4189797;28;19936;-49
2022/03/20 11:48:35;;;;;;;;;;;13.40;80.60;;;;;;4189027;28;19951;-50
2022/03/20 11:50:41;;;;;;;;;;;13.80;79.60;;;;;;4189743;28;19951;-49
2022/03/20 11:52:45;;;;;;;;;;;13.70;78.90;;;;;;4192313;28;19946;-50
2022/03/20 11:54:48;;;;;;;;;;;13.90;78.70;;;;;;4186420;28;19994;-51
2022/03/20 11:56:52;;;;;;;;;;;13.40;79.40;;;;;;4184005;28;19928;-49
2022/03/20 11:58:54;;;;;;;;;;;13.10;80.20;;;;;;4190915;28;19966;-51
2022/03/20 12:01:02;;;;;;;;;;;13.30;80.40;;;;;;4184504;28;19928;-48
2022/03/20 12:03:07;;;;;;;;;;;13.40;82.80;;;;;;4185962;28;20354;-51
2022/03/20 12:05:15;;;;;;;;;;;13.60;80.80;;;;;;4180251;28;19928;-51
2022/03/20 12:07:24;;;;;;;;;;;13.00;80.30;;;;;;4191825;28;19968;-47
2022/03/20 12:09:45;;;;;;;;;;;13.20;83.00;;;;;;4193953;28;20478;-50
2022/03/20 12:11:56;;;;;;;;;;;13.70;81.60;;;;;;4189486;28;19936;-52
2022/03/20 12:14:01;;;;;;;;;;;13.80;80.00;;;;;;4195729;28;19970;-49
2022/03/20 12:16:03;;;;;;;;;;;14.20;77.00;;;;;;4195853;28;19930;-49
2022/03/20 12:18:05;;;;;;;;;;;14.20;76.20;;;;;;4194228;28;20236;-50
2022/03/20 12:20:07;;;;;;;;;;;14.00;73.10;;;;;;4194471;28;20312;-49
2022/03/20 12:22:15;;;;;;;;;;;14.10;73.70;;;;;;4195755;28;19935;-50
2022/03/20 12:24:45;;;;;;;;;;;14.10;72.90;;;;;;4195865;28;19932;-48
2022/03/20 12:26:49;;;;;;;;;;;13.80;72.90;;;;;;4195912;28;19924;-50
2022/03/20 12:28:51;;;;;;;;;;;13.90;74.20;;;;;;4195540;28;20435;-49
2022/03/20 12:30:53;;;;;;;;;;;13.60;79.40;;;;;;4196001;28;19958;-48
2022/03/20 12:32:59;;;;;;;;;;;12.80;79.70;;;;;;4195623;28;20019;-51
2022/03/20 12:35:04;;;;;;;;;;;12.90;81.30;;;;;;4195789;28;19932;-51
2022/03/20 12:37:25;;;;;;;;;;;13.20;80.80;;;;;;4195684;28;19994;-49
2022/03/20 12:39:54;;;;;;;;;;;12.80;79.90;;;;;;4195378;28;19959;-52